Time;durP1;ratioP1;P1;durP2;ratioP2;P2;SDS_P1;SDS_P2;PMS_P1;PMS_P2;Temp;Humidity;BMP_temperature;BMP_pressure;BME280_temperature;BME280_humidity;BME280_pressure;Samples;Min_cycle;Max_cycle;Signal;HPM_P1;HPM_P2
2021/08/26 00:00:53;;;;;;;9.35;6.97;;;15.20;99.90;;;;;;5061336;28;20052;-74
2021/08/26 00:06:04;;;;;;;8.93;7.05;;;15.10;99.90;;;;;;5052254;28;20024;-73
2021/08/26 00:08:31;;;;;;;13.73;8.50;;;15.10;99.90;;;;;;5051716;28;20021;-74
2021/08/26 00:10:57;;;;;;;10.85;8.25;;;15.00;99.90;;;;;;5051555;28;20048;-73
2021/08/26 00:13:23;;;;;;;12.30;7.43;;;15.00;99.90;;;;;;5051788;28;20032;-74
2021/08/26 00:15:50;;;;;;;9.65;7.38;;;14.90;99.90;;;;;;5052812;28;20025;-74
2021/08/26 00:18:18;;;;;;;9.68;7.78;;;15.00;99.90;;;;;;5052911;28;20052;-73
2021/08/26 00:20:47;;;;;;;10.10;7.78;;;15.00;99.90;;;;;;5052650;28;20104;-73
2021/08/26 00:23:13;;;;;;;11.60;7.65;;;15.10;99.90;;;;;;5052741;28;20092;-74
2021/08/26 00:25:38;;;;;;;8.63;7.47;;;15.00;99.90;;;;;;5052898;28;20071;-75
2021/08/26 00:28:04;;;;;;;9.68;8.10;;;14.90;99.90;;;;;;5052381;28;20075;-73
2021/08/26 00:30:30;;;;;;;9.55;7.95;;;14.80;99.90;;;;;;5065733;28;20072;-74
2021/08/26 00:32:55;;;;;;;13.10;8.55;;;14.80;99.90;;;;;;5052610;28;20040;-73
2021/08/26 00:35:21;;;;;;;12.55;8.18;;;14.70;99.90;;;;;;5052702;28;20033;-73
2021/08/26 00:37:46;;;;;;;15.77;9.43;;;14.70;99.90;;;;;;5052485;28;20025;-72
2021/08/26 00:40:13;;;;;;;15.00;9.35;;;14.70;99.90;;;;;;5051157;28;20024;-73
2021/08/26 00:42:38;;;;;;;14.30;8.85;;;14.50;99.90;;;;;;5052455;28;20491;-75
2021/08/26 00:45:05;;;;;;;13.38;8.55;;;14.50;99.90;;;;;;5051281;28;20120;-75
2021/08/26 00:47:31;;;;;;;14.70;9.45;;;14.40;99.90;;;;;;5052291;28;20442;-75
2021/08/26 00:49:57;;;;;;;10.02;8.90;;;14.40;99.90;;;;;;5052195;28;20070;-75
2021/08/26 00:52:24;;;;;;;12.57;8.60;;;14.30;99.90;;;;;;5050939;28;20519;-75
2021/08/26 00:54:49;;;;;;;15.05;9.05;;;14.30;99.90;;;;;;5084601;28;20017;-75
2021/08/26 00:57:15;;;;;;;12.68;8.18;;;14.30;99.90;;;;;;5050961;28;20498;-74
2021/08/26 00:59:42;;;;;;;12.68;9.38;;;14.30;99.90;;;;;;5051996;28;20083;-74
2021/08/26 01:02:16;;;;;;;10.80;8.77;;;14.20;99.90;;;;;;5052191;28;20021;-75
2021/08/26 01:04:55;;;;;;;13.90;9.48;;;14.20;99.90;;;;;;5052075;28;20064;-75
2021/08/26 01:07:34;;;;;;;17.92;8.68;;;14.10;99.90;;;;;;5051988;28;20017;-74
2021/08/26 01:10:06;;;;;;;13.02;8.63;;;14.10;99.90;;;;;;5051772;28;20557;-75
2021/08/26 01:12:33;;;;;;;14.38;9.63;;;14.00;99.90;;;;;;5051926;28;20036;-75
2021/08/26 01:14:59;;;;;;;13.90;8.82;;;14.00;99.90;;;;;;5051790;28;20546;-75
2021/08/26 01:17:30;;;;;;;12.45;9.27;;;14.00;99.90;;;;;;5051532;28;20033;-75
2021/08/26 01:20:00;;;;;;;13.32;9.85;;;14.00;99.90;;;;;;5051757;28;20036;-75
2021/08/26 01:22:28;;;;;;;11.15;8.65;;;13.90;99.90;;;;;;5051932;28;20021;-75
2021/08/26 01:25:06;;;;;;;15.15;8.77;;;13.90;99.90;;;;;;5050399;28;20083;-75
2021/08/26 01:28:02;;;;;;;16.27;9.45;;;13.80;99.90;;;;;;5050460;28;20032;-75
2021/08/26 01:30:30;;;;;;;10.60;8.85;;;13.80;99.90;;;;;;5058717;28;20052;-75
2021/08/26 01:32:59;;;;;;;11.85;8.85;;;13.80;99.90;;;;;;5070639;28;20078;-75
2021/08/26 01:35:25;;;;;;;13.88;8.15;;;13.80;99.90;;;;;;5071692;28;20025;-75
2021/08/26 01:37:52;;;;;;;11.57;8.90;;;13.80;99.90;;;;;;5072247;28;20511;-74
2021/08/26 01:40:40;;;;;;;15.77;9.43;;;13.80;99.90;;;;;;5071425;28;20120;-75
2021/08/26 01:43:12;;;;;;;10.27;8.55;;;13.80;99.90;;;;;;5071793;28;20036;-75
2021/08/26 01:45:39;;;;;;;15.90;9.45;;;13.80;99.90;;;;;;5051554;28;20035;-75
2021/08/26 01:48:05;;;;;;;12.77;9.05;;;13.80;99.90;;;;;;5051499;28;20025;-74
2021/08/26 01:50:30;;;;;;;15.25;9.27;;;13.80;99.90;;;;;;5050012;28;20075;-75
2021/08/26 01:52:56;;;;;;;12.15;9.57;;;13.80;99.90;;;;;;5050221;28;20464;-75
2021/08/26 01:55:22;;;;;;;12.18;9.25;;;13.70;99.90;;;;;;5086126;28;20538;-75
2021/08/26 01:57:47;;;;;;;12.52;9.43;;;13.70;99.90;;;;;;5051500;28;20021;-75
2021/08/26 02:00:14;;;;;;;10.00;7.88;;;13.70;99.90;;;;;;5050011;28;20082;-74
2021/08/26 02:02:40;;;;;;;13.35;8.88;;;13.60;99.90;;;;;;5051488;28;20021;-75
2021/08/26 02:05:06;;;;;;;11.80;8.52;;;13.60;99.90;;;;;;5051497;28;20025;-74
2021/08/26 02:07:31;;;;;;;14.27;9.68;;;13.60;99.90;;;;;;5054833;28;20037;-74
2021/08/26 02:09:57;;;;;;;15.93;10.00;;;13.50;99.90;;;;;;5069819;28;20048;-74
2021/08/26 02:12:23;;;;;;;11.45;8.32;;;13.50;99.90;;;;;;5052226;28;20052;-74
2021/08/26 02:14:48;;;;;;;9.35;7.63;;;13.50;99.90;;;;;;5051841;28;20021;-74
2021/08/26 02:17:14;;;;;;;12.23;8.90;;;13.50;99.90;;;;;;5051744;28;20396;-73
2021/08/26 02:19:39;;;;;;;11.77;9.32;;;13.40;99.90;;;;;;5051235;28;20032;-74
2021/08/26 02:22:05;;;;;;;13.70;8.90;;;13.40;99.90;;;;;;5050148;28;20028;-74
2021/08/26 02:24:31;;;;;;;11.68;8.48;;;13.40;99.90;;;;;;5051700;28;20083;-73
2021/08/26 02:26:56;;;;;;;12.80;8.50;;;13.30;99.90;;;;;;5051458;28;20040;-74
2021/08/26 02:29:22;;;;;;;10.90;8.95;;;13.30;99.90;;;;;;5057084;28;20044;-73
2021/08/26 02:31:47;;;;;;;11.32;8.13;;;13.30;99.90;;;;;;5067026;28;20029;-73
2021/08/26 02:34:13;;;;;;;15.25;8.90;;;13.30;99.90;;;;;;5075519;28;20021;-73
2021/08/26 02:36:38;;;;;;;11.15;8.73;;;13.30;99.90;;;;;;5073957;28;20090;-74
2021/08/26 02:39:04;;;;;;;11.68;8.27;;;13.30;99.90;;;;;;5074574;28;20066;-74
2021/08/26 02:41:29;;;;;;;15.73;8.45;;;13.30;99.90;;;;;;5074809;28;20038;-74
2021/08/26 02:43:55;;;;;;;13.20;8.35;;;13.30;99.90;;;;;;5073563;28;20499;-74
2021/08/26 02:46:21;;;;;;;10.57;8.10;;;13.30;99.90;;;;;;5063522;28;20392;-74
2021/08/26 02:48:46;;;;;;;12.63;9.18;;;13.30;99.90;;;;;;5034259;28;20108;-75
2021/08/26 02:51:12;;;;;;;11.13;8.93;;;13.40;99.90;;;;;;5034690;28;20026;-76
2021/08/26 02:53:37;;;;;;;13.02;7.53;;;13.40;99.90;;;;;;5033120;28;20018;-75
2021/08/26 02:56:03;;;;;;;12.80;7.40;;;13.40;99.90;;;;;;5066608;28;20117;-75
2021/08/26 02:58:29;;;;;;;9.95;8.52;;;13.50;99.90;;;;;;5034390;28;20032;-74
2021/08/26 03:00:54;;;;;;;12.60;8.25;;;13.60;99.90;;;;;;5049739;28;20501;-74
2021/08/26 03:03:20;;;;;;;10.07;7.57;;;13.60;99.90;;;;;;5034376;28;20084;-73
2021/08/26 03:05:45;;;;;;;13.63;8.23;;;13.60;99.90;;;;;;5034428;28;20052;-74
2021/08/26 03:08:13;;;;;;;11.05;7.35;;;13.70;99.90;;;;;;5034077;28;20021;-74
2021/08/26 03:10:39;;;;;;;12.70;8.07;;;13.70;99.90;;;;;;5049584;28;20033;-75
2021/08/26 03:13:05;;;;;;;9.45;7.20;;;13.80;99.90;;;;;;5034250;28;20504;-75
2021/08/26 03:15:30;;;;;;;13.00;7.80;;;13.80;99.90;;;;;;5034261;28;20029;-74
2021/08/26 03:17:56;;;;;;;12.32;7.95;;;13.80;99.90;;;;;;5032761;28;20076;-74
2021/08/26 03:20:21;;;;;;;12.25;7.90;;;13.80;99.90;;;;;;5034041;28;20022;-74
2021/08/26 03:22:48;;;;;;;11.48;8.32;;;13.80;99.90;;;;;;5032780;28;20026;-74
2021/08/26 03:25:14;;;;;;;11.32;7.32;;;13.80;99.90;;;;;;5033959;28;20029;-74
2021/08/26 03:27:39;;;;;;;10.63;7.25;;;14.00;99.90;;;;;;5033970;28;20017;-75
2021/08/26 03:30:06;;;;;;;11.15;7.07;;;14.00;99.90;;;;;;5058539;28;20013;-74
2021/08/26 03:32:31;;;;;;;9.95;7.50;;;14.00;99.90;;;;;;5064702;28;20400;-74
2021/08/26 03:34:57;;;;;;;8.95;7.10;;;14.00;99.90;;;;;;5053917;28;20021;-74
2021/08/26 03:37:22;;;;;;;9.65;7.85;;;14.00;99.90;;;;;;5052424;28;20028;-74
2021/08/26 03:39:48;;;;;;;12.07;7.90;;;14.00;99.90;;;;;;5053408;28;20028;-74
2021/08/26 03:42:13;;;;;;;9.50;7.13;;;14.00;99.90;;;;;;5053535;28;20033;-74
2021/08/26 03:44:39;;;;;;;11.75;6.97;;;14.00;99.90;;;;;;5052238;28;20392;-74
2021/08/26 03:47:04;;;;;;;9.75;7.93;;;14.00;99.90;;;;;;5053361;28;20400;-75
2021/08/26 03:49:30;;;;;;;9.75;6.85;;;14.00;99.90;;;;;;5051968;28;20029;-74
2021/08/26 03:51:56;;;;;;;9.25;6.85;;;14.10;99.90;;;;;;5056107;28;20020;-74
2021/08/26 03:54:22;;;;;;;7.65;6.07;;;14.10;99.90;;;;;;5053288;28;20021;-73
2021/08/26 03:56:47;;;;;;;11.60;6.38;;;14.10;99.90;;;;;;5053574;28;20530;-75
2021/08/26 03:59:13;;;;;;;7.25;6.47;;;14.10;99.90;;;;;;5053263;28;20096;-73
2021/08/26 04:01:39;;;;;;;9.65;7.25;;;14.20;99.90;;;;;;5053241;28;20487;-74
2021/08/26 04:04:04;;;;;;;9.02;7.07;;;14.20;99.90;;;;;;5051895;28;20568;-73
2021/08/26 04:06:30;;;;;;;9.90;7.40;;;14.20;99.90;;;;;;5052982;28;20124;-76
2021/08/26 04:08:56;;;;;;;10.10;6.30;;;14.30;99.90;;;;;;5053438;28;20096;-74
2021/08/26 04:11:21;;;;;;;12.68;7.03;;;14.40;99.90;;;;;;5053456;28;20055;-75
2021/08/26 04:13:48;;;;;;;7.60;6.30;;;14.30;99.90;;;;;;5053126;28;20025;-75
2021/08/26 04:16:13;;;;;;;9.15;7.32;;;14.40;99.90;;;;;;5052958;28;20383;-74
2021/08/26 04:18:39;;;;;;;11.45;6.90;;;14.50;99.90;;;;;;5052980;28;20021;-74
2021/08/26 04:21:04;;;;;;;7.78;6.47;;;14.50;99.90;;;;;;5052740;28;20009;-74
2021/08/26 04:23:30;;;;;;;9.50;6.35;;;14.40;99.90;;;;;;5051585;28;20025;-75
2021/08/26 04:25:55;;;;;;;8.82;6.72;;;14.50;99.90;;;;;;5051199;28;20044;-75
2021/08/26 04:28:21;;;;;;;10.85;6.45;;;14.50;99.90;;;;;;5052261;28;20112;-75
2021/08/26 04:30:46;;;;;;;11.75;6.90;;;14.60;99.90;;;;;;5062470;28;20050;-76
2021/08/26 04:33:12;;;;;;;10.45;5.97;;;14.60;99.90;;;;;;5071502;28;20028;-75
2021/08/26 04:35:38;;;;;;;8.40;5.95;;;14.60;99.90;;;;;;5057753;28;20021;-75
2021/08/26 04:38:03;;;;;;;8.82;5.20;;;14.70;99.90;;;;;;5051339;28;20029;-75
2021/08/26 04:40:29;;;;;;;7.35;5.18;;;14.80;99.90;;;;;;5052502;28;20029;-74
2021/08/26 04:42:54;;;;;;;9.48;5.82;;;14.80;99.90;;;;;;5052289;28;20025;-75
2021/08/26 04:45:20;;;;;;;12.65;5.55;;;14.80;99.90;;;;;;5084713;28;20048;-74
2021/08/26 04:47:45;;;;;;;9.07;5.82;;;14.80;99.90;;;;;;5052035;28;20384;-75
2021/08/26 04:50:11;;;;;;;9.68;6.28;;;14.80;99.90;;;;;;5084617;28;20017;-75
2021/08/26 04:52:37;;;;;;;11.35;7.65;;;14.90;99.90;;;;;;5050440;28;20021;-74
2021/08/26 04:55:03;;;;;;;14.50;7.22;;;14.90;99.90;;;;;;5052336;28;20029;-75
2021/08/26 04:57:28;;;;;;;9.32;7.80;;;14.90;99.90;;;;;;5050809;28;20315;-74
2021/08/26 04:59:54;;;;;;;10.23;7.22;;;15.00;99.90;;;;;;5052036;28;20104;-75
2021/08/26 05:02:19;;;;;;;11.38;7.20;;;15.00;99.90;;;;;;5051994;28;20487;-75
2021/08/26 05:04:45;;;;;;;9.25;7.18;;;14.80;99.90;;;;;;5084345;28;20024;-74
2021/08/26 05:07:10;;;;;;;12.30;7.05;;;14.80;99.90;;;;;;5051997;28;20037;-75
2021/08/26 05:09:36;;;;;;;12.95;7.10;;;14.90;99.90;;;;;;5051987;28;20017;-75
2021/08/26 05:12:03;;;;;;;9.70;7.65;;;14.90;99.90;;;;;;5051968;28;20096;-75
2021/08/26 05:14:31;;;;;;;14.02;7.85;;;14.80;99.90;;;;;;5051791;28;20039;-75
2021/08/26 05:16:58;;;;;;;12.57;7.35;;;14.80;99.90;;;;;;5084244;28;20445;-74
2021/08/26 05:19:24;;;;;;;14.10;8.73;;;14.80;99.90;;;;;;5051659;28;20048;-74
2021/08/26 05:21:49;;;;;;;12.80;7.07;;;14.90;99.90;;;;;;5051837;28;20088;-75
2021/08/26 05:24:15;;;;;;;10.30;7.10;;;14.90;99.90;;;;;;5051856;28;20021;-74
2021/08/26 05:26:41;;;;;;;11.15;7.78;;;15.00;99.90;;;;;;5051665;28;20033;-74
2021/08/26 05:29:06;;;;;;;17.33;7.07;;;15.00;99.90;;;;;;5057474;28;20040;-75
2021/08/26 05:31:32;;;;;;;12.73;7.25;;;15.00;99.90;;;;;;5059891;28;20468;-74
2021/08/26 05:33:57;;;;;;;12.57;7.47;;;15.00;99.90;;;;;;5051571;28;20052;-74
2021/08/26 05:36:23;;;;;;;17.65;7.47;;;15.20;99.90;;;;;;5046884;28;20030;-75
2021/08/26 05:38:48;;;;;;;12.95;7.40;;;15.10;99.90;;;;;;5031366;28;20048;-74
2021/08/26 05:41:14;;;;;;;12.35;7.38;;;15.10;99.90;;;;;;5041649;28;20500;-75
2021/08/26 05:43:39;;;;;;;11.00;7.55;;;15.30;99.90;;;;;;5051527;28;20345;-74
2021/08/26 05:46:05;;;;;;;16.67;7.63;;;15.20;99.90;;;;;;5051513;28;20082;-74
2021/08/26 05:48:31;;;;;;;11.00;7.45;;;15.10;99.90;;;;;;5050371;28;20024;-75
2021/08/26 05:50:57;;;;;;;11.52;6.88;;;15.20;99.90;;;;;;5051432;28;20029;-75
2021/08/26 05:53:22;;;;;;;9.80;7.82;;;15.30;99.90;;;;;;5052249;28;20530;-74
2021/08/26 05:55:48;;;;;;;12.40;7.25;;;15.20;99.90;;;;;;5053688;28;20018;-75
2021/08/26 05:58:14;;;;;;;8.40;6.82;;;15.30;99.90;;;;;;5050311;28;20033;-74
2021/08/26 06:00:40;;;;;;;9.13;6.53;;;15.30;99.90;;;;;;5050086;28;20021;-75
2021/08/26 06:03:05;;;;;;;9.20;7.20;;;15.40;99.90;;;;;;5051916;28;20029;-75
2021/08/26 06:05:31;;;;;;;9.73;6.55;;;15.50;99.90;;;;;;5055366;28;20028;-75
2021/08/26 06:07:56;;;;;;;7.72;5.68;;;15.50;99.90;;;;;;5055732;28;20025;-75
2021/08/26 06:10:22;;;;;;;7.60;6.63;;;15.50;99.90;;;;;;5054928;28;20101;-76
2021/08/26 06:12:48;;;;;;;11.82;5.75;;;15.50;99.90;;;;;;5055175;28;20353;-75
2021/08/26 06:15:14;;;;;;;8.70;5.32;;;15.50;99.90;;;;;;5054961;28;20025;-76
2021/08/26 06:17:40;;;;;;;9.77;6.85;;;15.50;99.90;;;;;;5055370;28;20048;-76
2021/08/26 06:20:08;;;;;;;10.27;6.20;;;15.50;99.90;;;;;;5054977;28;20025;-75
2021/08/26 06:22:33;;;;;;;11.13;6.57;;;15.50;99.90;;;;;;5055046;28;20025;-75
2021/08/26 06:24:59;;;;;;;8.85;6.15;;;15.50;99.90;;;;;;5055150;28;20040;-74
2021/08/26 06:27:25;;;;;;;8.35;6.15;;;15.40;99.90;;;;;;5055176;28;20040;-76
2021/08/26 06:29:50;;;;;;;10.82;7.18;;;15.50;99.90;;;;;;5061210;28;20096;-75
2021/08/26 06:32:17;;;;;;;8.88;6.45;;;15.40;99.90;;;;;;5071700;28;20025;-75
2021/08/26 06:34:43;;;;;;;9.90;6.70;;;15.50;99.90;;;;;;5075334;28;20028;-76
2021/08/26 06:37:09;;;;;;;8.73;7.68;;;15.50;99.90;;;;;;5075102;28;20552;-76
2021/08/26 06:39:35;;;;;;;11.38;6.78;;;15.60;99.90;;;;;;5074760;28;20036;-75
2021/08/26 06:42:00;;;;;;;9.23;7.00;;;15.70;99.90;;;;;;5071253;28;20029;-76
2021/08/26 06:44:26;;;;;;;11.00;7.43;;;15.80;99.90;;;;;;5054975;28;20457;-75
2021/08/26 06:46:51;;;;;;;10.05;7.25;;;15.70;99.90;;;;;;5054689;28;20533;-75
2021/08/26 06:49:17;;;;;;;7.47;6.68;;;15.80;99.90;;;;;;5054666;28;20476;-74
2021/08/26 06:51:42;;;;;;;13.57;7.55;;;15.90;99.90;;;;;;5054667;28;20440;-75
2021/08/26 06:54:08;;;;;;;12.98;7.95;;;15.80;99.90;;;;;;5086871;28;20021;-75
2021/08/26 06:56:33;;;;;;;10.27;6.93;;;15.80;99.90;;;;;;5053428;28;20060;-75
2021/08/26 06:58:59;;;;;;;11.95;6.18;;;15.80;99.90;;;;;;5054449;28;20021;-74
2021/08/26 07:01:24;;;;;;;9.85;7.50;;;15.80;99.90;;;;;;5054711;28;20032;-75
2021/08/26 07:03:51;;;;;;;9.00;7.55;;;15.90;99.90;;;;;;5052692;28;20376;-76
2021/08/26 07:06:17;;;;;;;8.52;7.30;;;15.80;99.90;;;;;;5054451;28;20492;-75
2021/08/26 07:08:43;;;;;;;8.75;7.57;;;16.00;99.90;;;;;;5051996;28;20110;-77
2021/08/26 07:11:09;;;;;;;11.70;8.02;;;16.00;99.90;;;;;;5058700;28;20020;-78
2021/08/26 07:13:35;;;;;;;8.80;7.00;;;15.90;99.90;;;;;;5051778;28;20111;-76
2021/08/26 07:16:00;;;;;;;11.20;7.63;;;16.00;99.90;;;;;;5053770;28;20032;-76
2021/08/26 07:18:26;;;;;;;12.68;7.07;;;16.10;99.90;;;;;;5053985;28;20036;-78
2021/08/26 07:20:51;;;;;;;9.68;7.53;;;16.10;99.90;;;;;;5053920;28;20075;-76
2021/08/26 07:23:17;;;;;;;11.48;7.50;;;16.20;99.90;;;;;;5053026;28;20545;-76
2021/08/26 07:25:43;;;;;;;11.05;7.13;;;16.20;99.90;;;;;;5052639;28;20037;-75
2021/08/26 07:28:09;;;;;;;8.80;6.90;;;16.20;99.90;;;;;;5054112;28;20021;-77
2021/08/26 07:30:35;;;;;;;8.15;7.35;;;16.30;99.90;;;;;;5055577;28;20012;-74
2021/08/26 07:33:01;;;;;;;9.05;7.22;;;16.40;99.90;;;;;;5064216;28;20040;-77
2021/08/26 07:35:27;;;;;;;12.10;7.88;;;16.40;99.90;;;;;;5063323;28;20093;-77
2021/08/26 07:37:52;;;;;;;9.13;8.13;;;16.40;99.90;;;;;;5060418;28;20438;-76
2021/08/26 07:40:18;;;;;;;9.05;7.10;;;16.30;99.90;;;;;;5070735;28;20502;-76
2021/08/26 07:42:43;;;;;;;11.15;7.53;;;16.30;99.90;;;;;;5053917;28;20594;-76
2021/08/26 07:45:10;;;;;;;10.25;7.57;;;16.30;99.90;;;;;;5053767;28;20410;-74
2021/08/26 07:47:36;;;;;;;10.90;8.40;;;16.20;99.90;;;;;;5053519;28;20419;-77
2021/08/26 07:50:02;;;;;;;12.60;8.45;;;16.10;99.90;;;;;;5053214;28;20017;-76
2021/08/26 07:52:27;;;;;;;17.00;7.95;;;16.10;99.90;;;;;;5052696;28;20032;-76
2021/08/26 07:54:53;;;;;;;15.80;7.88;;;16.10;99.90;;;;;;5053508;28;20029;-77
2021/08/26 07:57:19;;;;;;;14.25;8.68;;;16.10;99.90;;;;;;5053739;28;20025;-75
2021/08/26 07:59:45;;;;;;;18.70;8.25;;;16.00;99.90;;;;;;5052242;28;20378;-76
2021/08/26 08:02:11;;;;;;;15.40;8.52;;;16.10;99.90;;;;;;5054530;28;20255;-77
2021/08/26 08:04:37;;;;;;;7.57;6.78;;;16.20;99.90;;;;;;5053676;28;20045;-77
2021/08/26 08:07:03;;;;;;;9.73;7.68;;;16.30;99.90;;;;;;5052253;28;20032;-76
2021/08/26 08:09:28;;;;;;;15.65;7.72;;;16.30;99.90;;;;;;5052109;28;20036;-77
2021/08/26 08:11:54;;;;;;;8.30;7.03;;;16.10;99.90;;;;;;5051684;28;20104;-76
2021/08/26 08:14:20;;;;;;;9.70;7.45;;;16.20;99.90;;;;;;5061352;28;20028;-77
2021/08/26 08:16:45;;;;;;;11.90;6.75;;;16.20;99.90;;;;;;5070472;28;20548;-76
2021/08/26 08:19:11;;;;;;;11.32;7.05;;;16.10;99.90;;;;;;5054084;28;20060;-77
2021/08/26 08:21:37;;;;;;;14.25;7.75;;;16.30;99.90;;;;;;5051933;28;20029;-76
2021/08/26 08:24:03;;;;;;;11.35;8.65;;;16.00;99.90;;;;;;5051925;28;20500;-75
2021/08/26 08:26:28;;;;;;;12.43;9.60;;;15.70;99.90;;;;;;5051488;28;20534;-76
2021/08/26 08:28:54;;;;;;;15.50;9.98;;;15.40;99.90;;;;;;5051431;28;20067;-77
2021/08/26 08:31:20;;;;;;;14.77;9.98;;;15.50;99.90;;;;;;5052973;28;20021;-75
2021/08/26 08:33:46;;;;;;;13.85;10.10;;;15.40;99.90;;;;;;5052828;28;20024;-75
2021/08/26 08:36:12;;;;;;;18.15;11.18;;;15.40;99.90;;;;;;5054673;28;20061;-76
2021/08/26 08:38:38;;;;;;;15.27;11.77;;;15.20;99.90;;;;;;5070444;28;20494;-76
2021/08/26 08:41:04;;;;;;;11.38;9.38;;;15.20;99.90;;;;;;5062010;28;20102;-76
2021/08/26 08:43:30;;;;;;;12.05;10.02;;;15.10;99.90;;;;;;5051523;28;20025;-76
2021/08/26 08:45:56;;;;;;;13.85;10.30;;;14.90;99.90;;;;;;5052755;28;20079;-78
2021/08/26 08:48:23;;;;;;;11.50;10.00;;;14.80;99.90;;;;;;5052619;28;20025;-78
2021/08/26 08:50:50;;;;;;;14.18;10.07;;;14.80;99.90;;;;;;5051715;28;20032;-74
2021/08/26 08:53:17;;;;;;;14.43;10.55;;;14.90;99.90;;;;;;5065258;28;20020;-77
2021/08/26 08:55:45;;;;;;;11.35;9.85;;;14.90;99.90;;;;;;5058882;28;20115;-75
2021/08/26 08:58:11;;;;;;;17.85;10.10;;;15.10;99.90;;;;;;5067404;28;20356;-77
2021/08/26 09:00:37;;;;;;;11.27;10.00;;;15.40;99.90;;;;;;5060731;28;20020;-75
2021/08/26 09:03:03;;;;;;;10.60;9.50;;;15.40;99.90;;;;;;5068561;28;20063;-75
2021/08/26 09:05:54;;;;;;;13.25;10.43;;;15.50;99.90;;;;;;5067381;28;20420;-77
2021/08/26 09:08:25;;;;;;;13.70;10.48;;;15.50;99.90;;;;;;5051726;28;20029;-77
2021/08/26 09:10:53;;;;;;;11.48;9.60;;;15.50;99.90;;;;;;5050863;28;20021;-75
2021/08/26 09:13:29;;;;;;;12.43;9.75;;;15.50;99.90;;;;;;5052064;28;20028;-76
2021/08/26 09:15:55;;;;;;;10.98;9.88;;;15.50;99.90;;;;;;5052224;28;20021;-75
2021/08/26 09:18:21;;;;;;;14.40;9.80;;;15.60;99.90;;;;;;5052059;28;20024;-75
2021/08/26 09:21:05;;;;;;;13.20;10.63;;;16.00;99.90;;;;;;5051754;28;20032;-76
2021/08/26 09:23:34;;;;;;;15.32;10.32;;;16.00;99.90;;;;;;5054107;28;20025;-75
2021/08/26 09:26:24;;;;;;;14.45;10.38;;;15.90;99.90;;;;;;5056847;28;20036;-77
2021/08/26 09:28:50;;;;;;;11.30;10.10;;;15.90;99.90;;;;;;5068249;28;20096;-77
2021/08/26 09:31:18;;;;;;;13.05;10.43;;;15.80;99.90;;;;;;5051888;28;20025;-78
2021/08/26 09:34:05;;;;;;;12.27;10.10;;;15.80;99.90;;;;;;5058225;28;20021;-78
2021/08/26 09:36:50;;;;;;;11.93;10.73;;;15.60;99.90;;;;;;5069514;28;20021;-76
2021/08/26 09:39:19;;;;;;;13.48;11.82;;;15.70;99.90;;;;;;5057999;28;20017;-76
2021/08/26 09:41:45;;;;;;;13.40;12.07;;;15.50;99.90;;;;;;5051047;28;20094;-76
2021/08/26 09:44:21;;;;;;;12.68;11.38;;;15.50;99.90;;;;;;5051761;28;20398;-76
2021/08/26 09:46:49;;;;;;;12.52;11.32;;;15.40;99.90;;;;;;5050576;28;20484;-76
2021/08/26 09:49:17;;;;;;;11.05;9.95;;;15.50;99.90;;;;;;5051909;28;20063;-77
2021/08/26 09:51:43;;;;;;;11.45;10.25;;;15.50;99.90;;;;;;5052389;28;20021;-77
2021/08/26 09:54:32;;;;;;;11.13;9.93;;;15.60;99.90;;;;;;5051982;28;20017;-77
2021/08/26 09:56:59;;;;;;;9.88;8.98;;;15.80;99.90;;;;;;5052768;28;20488;-76
2021/08/26 09:59:48;;;;;;;9.05;8.15;;;16.10;99.90;;;;;;5051562;28;20040;-77
2021/08/26 10:02:15;;;;;;;7.60;6.85;;;16.30;99.90;;;;;;5054585;28;20032;-76
2021/08/26 10:04:41;;;;;;;6.45;5.90;;;16.10;99.90;;;;;;5050603;28;20029;-76
2021/08/26 10:07:07;;;;;;;6.28;5.68;;;15.80;99.90;;;;;;5050964;28;20400;-76
2021/08/26 10:09:33;;;;;;;5.88;5.13;;;15.50;99.90;;;;;;5050454;28;20021;-76
2021/08/26 10:11:59;;;;;;;6.22;5.47;;;15.30;99.90;;;;;;5052055;28;20480;-77
2021/08/26 10:14:26;;;;;;;5.15;4.65;;;15.20;99.90;;;;;;5052043;28;20029;-77
2021/08/26 10:16:51;;;;;;;4.40;3.97;;;15.10;99.90;;;;;;5051578;28;20691;-77
2021/08/26 10:19:17;;;;;;;4.90;4.45;;;15.00;99.90;;;;;;5058294;28;20029;-77
2021/08/26 10:21:44;;;;;;;4.22;3.83;;;14.90;99.90;;;;;;5062141;28;20029;-77
2021/08/26 10:24:14;;;;;;;4.25;3.75;;;14.90;99.90;;;;;;5060385;28;20395;-78
2021/08/26 10:26:58;;;;;;;3.97;3.00;;;15.00;99.90;;;;;;5030206;28;20312;-78
2021/08/26 10:29:24;;;;;;;3.70;3.40;;;14.80;99.90;;;;;;5046281;28;20028;-76
2021/08/26 10:31:59;;;;;;;3.00;2.80;;;14.90;99.90;;;;;;5051988;28;20339;-77
2021/08/26 10:34:27;;;;;;;3.50;3.20;;;15.00;99.90;;;;;;5050485;28;20407;-76
2021/08/26 10:36:55;;;;;;;2.70;2.47;;;15.20;99.90;;;;;;5051908;28;20025;-76
2021/08/26 10:39:41;;;;;;;2.90;2.70;;;15.40;99.90;;;;;;5050725;28;20029;-76
2021/08/26 10:42:23;;;;;;;3.25;2.30;;;15.50;99.90;;;;;;5030483;28;20026;-76
2021/08/26 10:45:04;;;;;;;2.40;2.20;;;15.80;99.90;;;;;;5031736;28;20022;-77
2021/08/26 10:47:57;;;;;;;3.20;2.90;;;15.70;99.90;;;;;;5031702;28;20394;-77
2021/08/26 10:50:24;;;;;;;3.20;2.90;;;16.10;99.90;;;;;;5040635;28;20052;-76
2021/08/26 10:53:15;;;;;;;2.85;2.60;;;16.20;99.90;;;;;;5055759;28;20051;-78
2021/08/26 10:55:45;;;;;;;3.53;2.65;;;16.30;99.90;;;;;;5055445;28;20515;-75
2021/08/26 11:01:05;;;;;;;2.70;2.38;;;17.00;99.90;;;;;;5054996;28;20025;-76
2021/08/26 11:03:34;;;;;;;3.35;3.05;;;16.90;99.90;;;;;;5055842;28;20175;-76
2021/08/26 11:06:01;;;;;;;3.47;2.72;;;17.00;99.90;;;;;;5057226;28;20337;-77
2021/08/26 11:08:27;;;;;;;4.40;2.90;;;17.20;99.90;;;;;;5070118;28;20027;-76
2021/08/26 11:10:54;;;;;;;3.67;2.88;;;17.30;99.90;;;;;;5073727;28;20105;-75
2021/08/26 11:13:32;;;;;;;3.63;3.00;;;17.40;99.90;;;;;;5055131;28;20024;-75
2021/08/26 11:16:23;;;;;;;4.05;3.30;;;17.60;99.90;;;;;;5054579;28;20021;-76
2021/08/26 11:19:13;;;;;;;3.92;3.15;;;17.70;99.90;;;;;;5054625;28;20119;-77
2021/08/26 11:24:30;;;;;;;6.93;3.50;;;17.90;99.90;;;;;;5054496;28;20025;-77
2021/08/26 11:27:06;;;;;;;3.83;3.42;;;17.80;99.90;;;;;;5054901;28;20488;-77
2021/08/26 11:29:36;;;;;;;5.80;3.78;;;18.20;99.90;;;;;;5052892;28;20021;-76
2021/08/26 11:32:09;;;;;;;4.90;3.22;;;18.10;99.90;;;;;;5054603;28;20029;-76
2021/08/26 11:34:41;;;;;;;4.57;3.97;;;18.60;99.90;;;;;;5054645;28;20480;-77
2021/08/26 11:37:08;;;;;;;5.63;3.90;;;18.40;99.90;;;;;;5053135;28;20477;-76
2021/08/26 11:39:53;;;;;;;6.00;4.00;;;18.00;99.90;;;;;;5052876;28;20117;-76
2021/08/26 11:42:22;;;;;;;6.43;4.82;;;17.70;99.90;;;;;;5054057;28;20036;-76
2021/08/26 11:45:13;;;;;;;4.88;4.35;;;17.30;99.90;;;;;;5052690;28;20193;-76
2021/08/26 11:47:53;;;;;;;7.28;4.97;;;17.30;99.90;;;;;;5059926;28;20383;-76
2021/08/26 11:50:30;;;;;;;7.43;5.00;;;17.10;99.90;;;;;;5069705;28;20021;-77
2021/08/26 11:53:03;;;;;;;6.10;5.45;;;16.80;99.90;;;;;;5064781;28;20020;-76
2021/08/26 11:55:32;;;;;;;5.63;5.10;;;16.70;99.90;;;;;;5054189;28;20036;-76
2021/08/26 11:58:00;;;;;;;5.65;4.97;;;16.80;99.90;;;;;;5052953;28;20044;-75
2021/08/26 12:00:27;;;;;;;5.63;5.05;;;16.90;99.90;;;;;;5052779;28;20029;-77
2021/08/26 12:02:57;;;;;;;7.70;5.13;;;16.90;99.90;;;;;;5053823;28;20361;-75
2021/08/26 12:05:24;;;;;;;8.32;5.32;;;16.90;99.90;;;;;;5053677;28;20554;-76
2021/08/26 12:07:51;;;;;;;8.68;4.88;;;16.90;99.90;;;;;;5053529;28;20111;-76
2021/08/26 12:10:31;;;;;;;5.90;4.82;;;17.20;99.90;;;;;;5052917;28;20484;-76
2021/08/26 12:13:06;;;;;;;7.75;5.07;;;17.20;99.90;;;;;;5052187;28;20020;-76
2021/08/26 12:15:36;;;;;;;6.28;4.80;;;16.90;99.90;;;;;;5051842;28;20021;-76
2021/08/26 12:18:12;;;;;;;6.80;5.00;;;16.80;99.90;;;;;;5053399;28;20027;-78
2021/08/26 12:20:54;;;;;;;7.80;5.30;;;17.10;99.90;;;;;;5051904;28;20024;-76
2021/08/26 12:23:23;;;;;;;5.28;4.78;;;17.30;99.90;;;;;;5052143;28;20032;-76
2021/08/26 12:26:14;;;;;;;4.60;4.20;;;17.50;99.90;;;;;;5053000;28;20036;-76
2021/08/26 12:28:47;;;;;;;5.95;5.05;;;17.70;99.90;;;;;;5052952;28;20033;-77
2021/08/26 12:31:15;;;;;;;5.00;4.05;;;18.10;99.90;;;;;;5048534;28;20021;-78
2021/08/26 12:33:59;;;;;;;6.68;4.57;;;17.90;99.90;;;;;;5061063;28;20028;-77
2021/08/26 12:36:25;;;;;;;8.18;4.65;;;18.00;99.90;;;;;;5052862;28;20025;-77
2021/08/26 12:38:50;;;;;;;7.32;4.15;;;18.00;99.90;;;;;;5052780;28;20084;-76
2021/08/26 12:41:19;;;;;;;5.00;4.35;;;18.10;99.90;;;;;;5051659;28;20025;-76
2021/08/26 12:43:53;;;;;;;9.77;4.68;;;18.30;99.90;;;;;;5052785;28;20021;-77
2021/08/26 12:46:31;;;;;;;5.65;4.32;;;18.50;99.90;;;;;;5052443;28;20032;-77
2021/08/26 12:49:10;;;;;;;7.05;4.57;;;17.90;99.90;;;;;;5052312;28;20773;-77
2021/08/26 12:51:55;;;;;;;5.00;3.92;;;18.10;99.90;;;;;;5053067;28;20128;-75
2021/08/26 12:54:21;;;;;;;5.00;4.32;;;18.30;99.90;;;;;;5053607;28;20052;-76